This is the latest recevied weather packets stored in our database for station/object VK6WB. If no packets are shown the sender has not sent any weather packets the latest 10 day(s).
| Time | Temp. | Humidity | Pressure | Rain* | Wind** | Luminosity | Snow |
|---|---|---|---|---|---|---|---|
| 1777893605 | 16.11° C | 62% | 1022 hPa | 0 mm | - | 944 W/m² | - |
| 1777893005 | 16.67° C | 63% | 1022 hPa | 0 mm | - | 892 W/m² | - |
| 1777892405 | 16.67° C | 63% | 1022 hPa | 0 mm | - | 892 W/m² | - |
| 1777891805 | 16.67° C | 62% | 1021.9 hPa | 0 mm | - | 841 W/m² | - |
| 1777891204 | 17.22° C | 63% | 1021.8 hPa | 0 mm | - | 789 W/m² | - |
| 1777890605 | 17.22° C | 62% | 1021.6 hPa | 0 mm | - | 789 W/m² | - |
| 1777890005 | 17.22° C | 62% | 1021.5 hPa | 0 mm | - | 737 W/m² | - |
| 1777889405 | 17.78° C | 62% | 1021.5 hPa | 0 mm | - | 686 W/m² | - |
| 1777888806 | 17.78° C | 62% | 1021.2 hPa | 0 mm | - | 634 W/m² | - |
| 1777888204 | 17.78° C | 61% | 1021.1 hPa | 0 mm | - | 582 W/m² | - |
| 1777887605 | 18.33° C | 62% | 1021 hPa | 0 mm | - | 530 W/m² | - |
| 1777887005 | 18.89° C | 60% | 1021 hPa | 0 mm | - | 478 W/m² | - |
| 1777886405 | 18.89° C | 59% | 1020.9 hPa | 0 mm | - | 427 W/m² | - |
| 1777885804 | 20° C | 56% | 1020.9 hPa | 0 mm | - | 427 W/m² | - |
| 1777885206 | 20.56° C | 55% | 1020.8 hPa | 0 mm | - | 375 W/m² | - |
| 1777884605 | 21.11° C | 54% | 1020.9 hPa | 0 mm | - | 323 W/m² | - |
| 1777884005 | 21.11° C | 53% | 1021 hPa | 0 mm | - | 220 W/m² | - |
| 1777883406 | 21.67° C | 52% | 1020.9 hPa | 0 mm | - | 168 W/m² | - |
| 1777882804 | 22.22° C | 49% | 1020.9 hPa | 0 mm | - | 64 W/m² | - |
| 1777882205 | 23.33° C | 44% | 1020.8 hPa | 0 mm | - | 11 W/m² | - |
| 1777881605 | 24.44° C | 37% | 1020.9 hPa | 0 mm | - | 11 W/m² | - |
| 1777881005 | 23.89° C | 36% | 1020.9 hPa | 0 mm | - | 11 W/m² | - |
| 1777880404 | 23.89° C | 37% | 1020.8 hPa | 0 mm | - | 11 W/m² | - |
| 1777879805 | 23.33° C | 37% | 1020.9 hPa | 0 mm | - | 11 W/m² | - |
| 1777879204 | 22.78° C | 38% | 1020.9 hPa | 0 mm | - | 11 W/m² | - |
* Rain latest hour (hover to see other rain measurements)
** Current wind speed in m/s (hover to see current wind gust speed)